Rhome, Texas
Current Conditions -  °F | °C
As of 7:53 AM on Friday 19 Dec 2014 (Local Time) from KAFW Reporting Station
Haze Haze  
Wind Chill: 41°   Ceiling: 600
Heat Index: 45°   Visibility: 4mi
Dew Point: 44°   Wind: 7mph
Humidity: 97%   Direction: 360°N
Pressure: 30.19"   Gusts: NA
Location:  33.05°N, 97.47°W
Report Text: KAFW 191353Z 36006KT 4SM BR OVC006 07/07 A3019 RMK AO2 CIG 004V008 SLP226 T00720067
Loading
Personal Weather Stations






























Interactive Weather Map New forecast layout! Learn more

10-Day Weather Forecast

Advertisements
Track Severe Weather on mobile